logo
Rechercher aéroport 
image banner adimage banner adimage banner ad
image banner ad

FAAUGR - Augrabies

Situé à , South Africa

ICAO - , IATA -

Données fournies par Airmate  

Information générale

Coordonnées: S28°37'48" E20°19'12"
Élévation : 2201 feet MSL.
 
Évalué:
Voir évaluations:
[VIEW]
Voir autres Aéroports à Northern Cape

Données opérationnelles

Special qualification required
Heure actuelle UTC:
Heure actuelle locale:
Météo à : - ( 0 km )
METAR: ZMUB 220900Z VRB02MPS 9999 FEW030CB BKN033 13/09 Q1016 NOSIG RMK QFE654.6 79 MOP
Voir NOTAMs / SUP AIP / TFR affectant cet aéroport [VIEW]
Fréquences de communication: [VIEW]

Pistes:

Identifiant RWYQFULongueur (ft)Largeur (ft)SurfaceLDA (ft)
0880°426566SAND
26260°426566SAND

Coordonnées de l'aéroport

Adresse: South Africa

Autres services

Hôtels

Dundi Lodge

Dundi Lodge
Évalué:
Voir évaluations:
[VIEW]

Vue satellite de FAAUGR